sensor_id;sensor_type;location;lat;lon;timestamp;pressure;altitude;pressure_sealevel;temperature
76901;BMP280;65859;43.020;25.096;2023-03-21T00:02:05;99174.88;;;8.98
76901;BMP280;65859;43.020;25.096;2023-03-21T00:04:50;99173.16;;;8.84
76901;BMP280;65859;43.020;25.096;2023-03-21T00:07:35;99167.50;;;8.51
76901;BMP280;65859;43.020;25.096;2023-03-21T00:10:02;99171.13;;;8.73
76901;BMP280;65859;43.020;25.096;2023-03-21T00:12:29;99166.19;;;9.32
76901;BMP280;65859;43.020;25.096;2023-03-21T00:14:58;99162.91;;;9.17
76901;BMP280;65859;43.020;25.096;2023-03-21T00:17:30;99158.22;;;9.49
76901;BMP280;65859;43.020;25.096;2023-03-21T00:19:58;99158.00;;;9.71
76901;BMP280;65859;43.020;25.096;2023-03-21T00:22:26;99154.19;;;9.90
76901;BMP280;65859;43.020;25.096;2023-03-21T00:24:53;99152.28;;;9.99
76901;BMP280;65859;43.020;25.096;2023-03-21T00:27:20;99149.28;;;9.71
76901;BMP280;65859;43.020;25.096;2023-03-21T00:29:47;99148.03;;;9.60
76901;BMP280;65859;43.020;25.096;2023-03-21T00:32:17;99146.53;;;9.33
76901;BMP280;65859;43.020;25.096;2023-03-21T00:34:43;99150.44;;;9.01
76901;BMP280;65859;43.020;25.096;2023-03-21T00:37:11;99145.31;;;8.87
76901;BMP280;65859;43.020;25.096;2023-03-21T00:39:39;99144.69;;;9.33
76901;BMP280;65859;43.020;25.096;2023-03-21T00:42:07;99147.19;;;9.04
76901;BMP280;65859;43.020;25.096;2023-03-21T00:44:34;99141.00;;;8.34
76901;BMP280;65859;43.020;25.096;2023-03-21T00:47:05;99128.03;;;8.98
76901;BMP280;65859;43.020;25.096;2023-03-21T00:49:32;99122.09;;;9.27
76901;BMP280;65859;43.020;25.096;2023-03-21T00:52:00;99130.75;;;9.54
76901;BMP280;65859;43.020;25.096;2023-03-21T00:54:26;99140.63;;;9.18
76901;BMP280;65859;43.020;25.096;2023-03-21T00:56:53;99143.41;;;9.39
76901;BMP280;65859;43.020;25.096;2023-03-21T00:59:19;99133.16;;;9.21
76901;BMP280;65859;43.020;25.096;2023-03-21T01:01:46;99132.97;;;8.56
76901;BMP280;65859;43.020;25.096;2023-03-21T01:04:13;99140.06;;;8.30
76901;BMP280;65859;43.020;25.096;2023-03-21T01:06:43;99135.19;;;8.89
76901;BMP280;65859;43.020;25.096;2023-03-21T01:09:15;99131.06;;;8.57
76901;BMP280;65859;43.020;25.096;2023-03-21T01:11:42;99124.75;;;9.27
76901;BMP280;65859;43.020;25.096;2023-03-21T01:14:10;99130.06;;;9.83
76901;BMP280;65859;43.020;25.096;2023-03-21T01:16:37;99116.50;;;9.11
76901;BMP280;65859;43.020;25.096;2023-03-21T01:19:05;99129.78;;;9.76
76901;BMP280;65859;43.020;25.096;2023-03-21T01:21:31;99123.13;;;9.99
76901;BMP280;65859;43.020;25.096;2023-03-21T01:23:58;99114.34;;;8.96
76901;BMP280;65859;43.020;25.096;2023-03-21T01:26:25;99113.16;;;8.36
76901;BMP280;65859;43.020;25.096;2023-03-21T01:28:51;99111.03;;;8.47
76901;BMP280;65859;43.020;25.096;2023-03-21T01:31:17;99101.22;;;8.39
76901;BMP280;65859;43.020;25.096;2023-03-21T01:33:44;99092.97;;;8.32
76901;BMP280;65859;43.020;25.096;2023-03-21T01:36:19;99097.59;;;8.26
76901;BMP280;65859;43.020;25.096;2023-03-21T01:38:47;99107.59;;;8.47
76901;BMP280;65859;43.020;25.096;2023-03-21T01:41:38;99092.03;;;8.36
76901;BMP280;65859;43.020;25.096;2023-03-21T01:44:05;99092.97;;;8.32
76901;BMP280;65859;43.020;25.096;2023-03-21T01:46:44;99092.75;;;8.20
76901;BMP280;65859;43.020;25.096;2023-03-21T01:49:22;99092.69;;;8.77
76901;BMP280;65859;43.020;25.096;2023-03-21T01:51:56;99075.13;;;8.63
76901;BMP280;65859;43.020;25.096;2023-03-21T01:54:27;99069.16;;;8.49
76901;BMP280;65859;43.020;25.096;2023-03-21T01:57:00;99080.13;;;8.65
76901;BMP280;65859;43.020;25.096;2023-03-21T02:02:08;99108.72;;;8.89
76901;BMP280;65859;43.020;25.096;2023-03-21T02:04:37;99100.50;;;8.90
76901;BMP280;65859;43.020;25.096;2023-03-21T02:07:14;99102.81;;;9.09
76901;BMP280;65859;43.020;25.096;2023-03-21T02:09:46;99123.16;;;9.26
76901;BMP280;65859;43.020;25.096;2023-03-21T02:12:13;99112.13;;;9.33
76901;BMP280;65859;43.020;25.096;2023-03-21T02:14:42;99118.84;;;9.22
76901;BMP280;65859;43.020;25.096;2023-03-21T02:20:26;99113.56;;;9.77
76901;BMP280;65859;43.020;25.096;2023-03-21T02:23:28;99116.06;;;9.73
76901;BMP280;65859;43.020;25.096;2023-03-21T02:26:28;99125.41;;;9.80
76901;BMP280;65859;43.020;25.096;2023-03-21T02:43:37;99126.59;;;8.57
76901;BMP280;65859;43.020;25.096;2023-03-21T02:46:09;99116.75;;;8.32
76901;BMP280;65859;43.020;25.096;2023-03-21T02:49:06;99107.56;;;8.29
76901;BMP280;65859;43.020;25.096;2023-03-21T02:51:34;99117.50;;;8.24
76901;BMP280;65859;43.020;25.096;2023-03-21T02:54:08;99125.22;;;8.11
76901;BMP280;65859;43.020;25.096;2023-03-21T02:56:37;99115.56;;;8.07
76901;BMP280;65859;43.020;25.096;2023-03-21T02:59:06;99120.28;;;8.27
76901;BMP280;65859;43.020;25.096;2023-03-21T03:01:33;99135.53;;;8.96
76901;BMP280;65859;43.020;25.096;2023-03-21T03:03:59;99132.34;;;8.59
76901;BMP280;65859;43.020;25.096;2023-03-21T03:06:48;99121.31;;;9.35
76901;BMP280;65859;43.020;25.096;2023-03-21T03:12:04;99130.59;;;9.59
76901;BMP280;65859;43.020;25.096;2023-03-21T03:25:13;99137.22;;;9.09
76901;BMP280;65859;43.020;25.096;2023-03-21T03:27:42;99128.97;;;9.20
76901;BMP280;65859;43.020;25.096;2023-03-21T03:30:11;99137.97;;;9.18
76901;BMP280;65859;43.020;25.096;2023-03-21T03:32:45;99132.19;;;9.51
76901;BMP280;65859;43.020;25.096;2023-03-21T03:35:16;99134.72;;;9.04
76901;BMP280;65859;43.020;25.096;2023-03-21T03:37:47;99123.63;;;8.68
76901;BMP280;65859;43.020;25.096;2023-03-21T03:40:29;99122.59;;;9.03
76901;BMP280;65859;43.020;25.096;2023-03-21T03:43:02;99128.66;;;9.12
76901;BMP280;65859;43.020;25.096;2023-03-21T03:45:34;99135.63;;;9.08
76901;BMP280;65859;43.020;25.096;2023-03-21T03:50:51;99124.78;;;9.01
76901;BMP280;65859;43.020;25.096;2023-03-21T03:53:28;99116.00;;;9.27
76901;BMP280;65859;43.020;25.096;2023-03-21T03:55:58;99115.72;;;9.28
76901;BMP280;65859;43.020;25.096;2023-03-21T03:58:25;99128.81;;;9.25
76901;BMP280;65859;43.020;25.096;2023-03-21T04:00:53;99125.06;;;9.34
76901;BMP280;65859;43.020;25.096;2023-03-21T04:03:20;99112.00;;;9.21
76901;BMP280;65859;43.020;25.096;2023-03-21T04:05:47;99124.28;;;9.16
76901;BMP280;65859;43.020;25.096;2023-03-21T04:08:14;99126.47;;;9.32
76901;BMP280;65859;43.020;25.096;2023-03-21T04:10:43;99121.00;;;9.28
76901;BMP280;65859;43.020;25.096;2023-03-21T04:13:10;99103.28;;;8.85
76901;BMP280;65859;43.020;25.096;2023-03-21T04:15:36;99114.31;;;8.79
76901;BMP280;65859;43.020;25.096;2023-03-21T04:18:03;99102.81;;;9.09
76901;BMP280;65859;43.020;25.096;2023-03-21T04:20:29;99112.44;;;8.71
76901;BMP280;65859;43.020;25.096;2023-03-21T04:22:56;99105.63;;;8.87
76901;BMP280;65859;43.020;25.096;2023-03-21T04:25:22;99116.34;;;8.82
76901;BMP280;65859;43.020;25.096;2023-03-21T04:27:48;99116.16;;;9.39
76901;BMP280;65859;43.020;25.096;2023-03-21T04:30:15;99121.31;;;9.18
76901;BMP280;65859;43.020;25.096;2023-03-21T04:32:42;99128.47;;;9.43
76901;BMP280;65859;43.020;25.096;2023-03-21T04:35:09;99129.56;;;9.08
76901;BMP280;65859;43.020;25.096;2023-03-21T04:37:37;99128.50;;;9.00
76901;BMP280;65859;43.020;25.096;2023-03-21T04:40:04;99120.25;;;8.93
76901;BMP280;65859;43.020;25.096;2023-03-21T04:42:33;99124.78;;;9.01
76901;BMP280;65859;43.020;25.096;2023-03-21T04:45:00;99131.94;;;9.09
76901;BMP280;65859;43.020;25.096;2023-03-21T04:47:27;99137.06;;;9.14
76901;BMP280;65859;43.020;25.096;2023-03-21T04:49:53;99128.47;;;9.35
76901;BMP280;65859;43.020;25.096;2023-03-21T04:52:20;99130.47;;;9.47
76901;BMP280;65859;43.020;25.096;2023-03-21T04:54:46;99128.06;;;9.62
76901;BMP280;65859;43.020;25.096;2023-03-21T04:57:13;99136.91;;;9.84
76901;BMP280;65859;43.020;25.096;2023-03-21T04:59:39;99139.66;;;9.58
76901;BMP280;65859;43.020;25.096;2023-03-21T05:02:06;99130.94;;;9.49
76901;BMP280;65859;43.020;25.096;2023-03-21T05:04:32;99132.63;;;9.53
76901;BMP280;65859;43.020;25.096;2023-03-21T05:06:58;99140.22;;;9.72
76901;BMP280;65859;43.020;25.096;2023-03-21T05:09:26;99141.25;;;8.98
76901;BMP280;65859;43.020;25.096;2023-03-21T05:11:53;99139.09;;;9.09
76901;BMP280;65859;43.020;25.096;2023-03-21T05:14:24;99145.00;;;9.32
76901;BMP280;65859;43.020;25.096;2023-03-21T05:16:51;99137.06;;;8.80
76901;BMP280;65859;43.020;25.096;2023-03-21T05:19:29;99144.31;;;8.57
76901;BMP280;65859;43.020;25.096;2023-03-21T05:22:08;99144.06;;;8.84
76901;BMP280;65859;43.020;25.096;2023-03-21T05:24:35;99149.66;;;9.26
76901;BMP280;65859;43.020;25.096;2023-03-21T05:27:04;99154.31;;;9.29
76901;BMP280;65859;43.020;25.096;2023-03-21T05:29:31;99157.91;;;9.07
76901;BMP280;65859;43.020;25.096;2023-03-21T05:31:59;99154.66;;;9.92
76901;BMP280;65859;43.020;25.096;2023-03-21T05:34:26;99161.94;;;10.33
76901;BMP280;65859;43.020;25.096;2023-03-21T05:36:53;99164.00;;;10.99
76901;BMP280;65859;43.020;25.096;2023-03-21T05:39:20;99162.44;;;10.77
76901;BMP280;65859;43.020;25.096;2023-03-21T05:41:48;99157.94;;;10.77
76901;BMP280;65859;43.020;25.096;2023-03-21T05:44:15;99156.19;;;10.81
76901;BMP280;65859;43.020;25.096;2023-03-21T05:46:41;99157.00;;;11.15
76901;BMP280;65859;43.020;25.096;2023-03-21T05:49:09;99160.16;;;11.29
76901;BMP280;65859;43.020;25.096;2023-03-21T05:51:36;99160.66;;;11.56
76901;BMP280;65859;43.020;25.096;2023-03-21T05:54:03;99151.88;;;11.88
76901;BMP280;65859;43.020;25.096;2023-03-21T05:56:29;99157.47;;;12.11
76901;BMP280;65859;43.020;25.096;2023-03-21T05:58:55;99154.16;;;11.78
76901;BMP280;65859;43.020;25.096;2023-03-21T06:01:22;99150.72;;;11.77
76901;BMP280;65859;43.020;25.096;2023-03-21T06:03:48;99158.13;;;11.72
76901;BMP280;65859;43.020;25.096;2023-03-21T06:06:14;99148.84;;;11.32
76901;BMP280;65859;43.020;25.096;2023-03-21T06:08:41;99152.63;;;10.77
76901;BMP280;65859;43.020;25.096;2023-03-21T06:11:17;99155.97;;;11.41
76901;BMP280;65859;43.020;25.096;2023-03-21T06:13:46;99157.78;;;11.61
76901;BMP280;65859;43.020;25.096;2023-03-21T06:16:13;99148.84;;;11.66
76901;BMP280;65859;43.020;25.096;2023-03-21T06:18:39;99150.28;;;12.12
76901;BMP280;65859;43.020;25.096;2023-03-21T06:21:05;99155.03;;;11.70
76901;BMP280;65859;43.020;25.096;2023-03-21T06:23:32;99156.03;;;12.51
76901;BMP280;65859;43.020;25.096;2023-03-21T06:25:58;99146.84;;;13.04
76901;BMP280;65859;43.020;25.096;2023-03-21T06:28:24;99153.50;;;13.26
76901;BMP280;65859;43.020;25.096;2023-03-21T06:30:52;99158.13;;;13.29
76901;BMP280;65859;43.020;25.096;2023-03-21T06:33:18;99162.19;;;14.02
76901;BMP280;65859;43.020;25.096;2023-03-21T06:35:49;99169.66;;;14.12
76901;BMP280;65859;43.020;25.096;2023-03-21T06:38:15;99167.69;;;14.83
76901;BMP280;65859;43.020;25.096;2023-03-21T06:40:42;99160.22;;;13.67
76901;BMP280;65859;43.020;25.096;2023-03-21T06:43:10;99157.06;;;13.77
76901;BMP280;65859;43.020;25.096;2023-03-21T06:45:38;99158.88;;;12.98
76901;BMP280;65859;43.020;25.096;2023-03-21T06:48:04;99154.91;;;12.52
76901;BMP280;65859;43.020;25.096;2023-03-21T06:50:31;99160.78;;;12.45
76901;BMP280;65859;43.020;25.096;2023-03-21T06:52:57;99161.78;;;12.53
76901;BMP280;65859;43.020;25.096;2023-03-21T06:55:25;99160.91;;;13.48
76901;BMP280;65859;43.020;25.096;2023-03-21T06:57:56;99157.81;;;13.78
76901;BMP280;65859;43.020;25.096;2023-03-21T07:00:23;99154.59;;;13.09
76901;BMP280;65859;43.020;25.096;2023-03-21T07:02:49;99148.06;;;13.07
76901;BMP280;65859;43.020;25.096;2023-03-21T07:05:16;99154.16;;;14.37
76901;BMP280;65859;43.020;25.096;2023-03-21T07:07:42;99150.59;;;13.63
76901;BMP280;65859;43.020;25.096;2023-03-21T07:10:09;99158.81;;;14.98
76901;BMP280;65859;43.020;25.096;2023-03-21T07:12:36;99155.06;;;15.98
76901;BMP280;65859;43.020;25.096;2023-03-21T07:15:04;99161.84;;;16.18
76901;BMP280;65859;43.020;25.096;2023-03-21T07:17:33;99156.44;;;17.19
76901;BMP280;65859;43.020;25.096;2023-03-21T07:19:59;99150.84;;;17.34
76901;BMP280;65859;43.020;25.096;2023-03-21T07:22:26;99149.66;;;17.32
76901;BMP280;65859;43.020;25.096;2023-03-21T07:24:52;99144.50;;;16.68
76901;BMP280;65859;43.020;25.096;2023-03-21T07:27:18;99144.50;;;16.38
76901;BMP280;65859;43.020;25.096;2023-03-21T07:29:44;99138.25;;;16.61
76901;BMP280;65859;43.020;25.096;2023-03-21T07:32:12;99139.56;;;17.18
76901;BMP280;65859;43.020;25.096;2023-03-21T07:34:39;99138.09;;;17.76
76901;BMP280;65859;43.020;25.096;2023-03-21T07:37:05;99137.59;;;18.43
76901;BMP280;65859;43.020;25.096;2023-03-21T07:39:32;99139.03;;;18.15
76901;BMP280;65859;43.020;25.096;2023-03-21T07:42:00;99136.84;;;17.11
76901;BMP280;65859;43.020;25.096;2023-03-21T07:44:27;99133.34;;;17.58
76901;BMP280;65859;43.020;25.096;2023-03-21T07:46:54;99126.38;;;18.09
76901;BMP280;65859;43.020;25.096;2023-03-21T07:49:22;99130.59;;;18.10
76901;BMP280;65859;43.020;25.096;2023-03-21T07:51:48;99126.31;;;18.02
76901;BMP280;65859;43.020;25.096;2023-03-21T07:54:15;99126.13;;;18.99
76901;BMP280;65859;43.020;25.096;2023-03-21T07:56:44;99131.06;;;19.58
76901;BMP280;65859;43.020;25.096;2023-03-21T07:59:10;99135.38;;;19.34
76901;BMP280;65859;43.020;25.096;2023-03-21T08:01:36;99124.84;;;19.89
76901;BMP280;65859;43.020;25.096;2023-03-21T08:04:03;99131.03;;;19.75
76901;BMP280;65859;43.020;25.096;2023-03-21T08:06:29;99124.13;;;19.78
76901;BMP280;65859;43.020;25.096;2023-03-21T08:08:58;99117.53;;;19.90
76901;BMP280;65859;43.020;25.096;2023-03-21T08:11:24;99111.78;;;19.91
76901;BMP280;65859;43.020;25.096;2023-03-21T08:13:52;99114.25;;;19.29
76901;BMP280;65859;43.020;25.096;2023-03-21T08:16:20;99118.50;;;19.12
76901;BMP280;65859;43.020;25.096;2023-03-21T08:18:46;99113.09;;;19.01
76901;BMP280;65859;43.020;25.096;2023-03-21T08:21:14;99110.41;;;18.91
76901;BMP280;65859;43.020;25.096;2023-03-21T08:23:40;99104.63;;;18.60
76901;BMP280;65859;43.020;25.096;2023-03-21T08:26:07;99096.56;;;18.56
76901;BMP280;65859;43.020;25.096;2023-03-21T08:28:35;99098.06;;;18.47
76901;BMP280;65859;43.020;25.096;2023-03-21T08:31:09;99101.19;;;18.56
76901;BMP280;65859;43.020;25.096;2023-03-21T08:33:36;99091.06;;;18.14
76901;BMP280;65859;43.020;25.096;2023-03-21T08:36:04;99094.91;;;18.20
76901;BMP280;65859;43.020;25.096;2023-03-21T08:38:31;99090.31;;;18.13
76901;BMP280;65859;43.020;25.096;2023-03-21T08:40:59;99090.00;;;18.54
76901;BMP280;65859;43.020;25.096;2023-03-21T08:43:27;99096.59;;;18.71
76901;BMP280;65859;43.020;25.096;2023-03-21T08:45:53;99099.25;;;19.13
76901;BMP280;65859;43.020;25.096;2023-03-21T08:48:21;99102.75;;;21.23
76901;BMP280;65859;43.020;25.096;2023-03-21T08:50:47;99090.00;;;20.82
76901;BMP280;65859;43.020;25.096;2023-03-21T08:53:14;99093.38;;;19.58
76901;BMP280;65859;43.020;25.096;2023-03-21T08:55:42;99091.16;;;19.42
76901;BMP280;65859;43.020;25.096;2023-03-21T08:58:08;99099.25;;;20.29
76901;BMP280;65859;43.020;25.096;2023-03-21T09:00:34;99093.50;;;21.58
76901;BMP280;65859;43.020;25.096;2023-03-21T09:03:01;99090.56;;;22.06
76901;BMP280;65859;43.020;25.096;2023-03-21T09:05:29;99094.81;;;22.34
76901;BMP280;65859;43.020;25.096;2023-03-21T09:07:56;99093.91;;;22.87
76901;BMP280;65859;43.020;25.096;2023-03-21T09:10:23;99089.16;;;23.35
76901;BMP280;65859;43.020;25.096;2023-03-21T09:12:51;99090.72;;;24.40
76901;BMP280;65859;43.020;25.096;2023-03-21T09:15:19;99081.31;;;22.81
76901;BMP280;65859;43.020;25.096;2023-03-21T09:17:47;99087.88;;;23.43
76901;BMP280;65859;43.020;25.096;2023-03-21T09:20:18;99086.19;;;24.01
76901;BMP280;65859;43.020;25.096;2023-03-21T09:22:47;99082.72;;;24.66
76901;BMP280;65859;43.020;25.096;2023-03-21T09:25:15;99079.56;;;24.96
76901;BMP280;65859;43.020;25.096;2023-03-21T09:27:42;99069.31;;;23.93
76901;BMP280;65859;43.020;25.096;2023-03-21T09:30:12;99067.50;;;23.35
76901;BMP280;65859;43.020;25.096;2023-03-21T09:32:38;99064.44;;;22.93
76901;BMP280;65859;43.020;25.096;2023-03-21T09:35:05;99064.94;;;22.65
76901;BMP280;65859;43.020;25.096;2023-03-21T09:37:33;99063.31;;;21.93
76901;BMP280;65859;43.020;25.096;2023-03-21T09:40:03;99071.41;;;21.32
76901;BMP280;65859;43.020;25.096;2023-03-21T09:46:25;99058.78;;;21.87
76901;BMP280;65859;43.020;25.096;2023-03-21T09:48:48;99062.31;;;20.74
76901;BMP280;65859;43.020;25.096;2023-03-21T09:51:16;99062.31;;;21.19
76901;BMP280;65859;43.020;25.096;2023-03-21T09:53:46;99073.00;;;22.18
76901;BMP280;65859;43.020;25.096;2023-03-21T09:56:15;99064.94;;;22.88
76901;BMP280;65859;43.020;25.096;2023-03-21T09:58:51;99065.06;;;21.77
76901;BMP280;65859;43.020;25.096;2023-03-21T10:01:23;99063.25;;;21.40
76901;BMP280;65859;43.020;25.096;2023-03-21T10:04:05;99056.41;;;21.62
76901;BMP280;65859;43.020;25.096;2023-03-21T10:06:35;99050.22;;;22.66
76901;BMP280;65859;43.020;25.096;2023-03-21T10:09:15;99052.59;;;23.07
76901;BMP280;65859;43.020;25.096;2023-03-21T10:11:58;99057.97;;;23.82
76901;BMP280;65859;43.020;25.096;2023-03-21T10:14:32;99051.50;;;24.57
76901;BMP280;65859;43.020;25.096;2023-03-21T10:20:15;99062.09;;;25.77
76901;BMP280;65859;43.020;25.096;2023-03-21T10:22:42;99066.25;;;24.28
76901;BMP280;65859;43.020;25.096;2023-03-21T10:25:17;99053.50;;;24.08
76901;BMP280;65859;43.020;25.096;2023-03-21T10:27:45;99054.28;;;23.17
76901;BMP280;65859;43.020;25.096;2023-03-21T10:30:41;99045.03;;;22.75
76901;BMP280;65859;43.020;25.096;2023-03-21T10:33:14;99054.28;;;22.97
76901;BMP280;65859;43.020;25.096;2023-03-21T10:35:52;99046.22;;;23.53
76901;BMP280;65859;43.020;25.096;2023-03-21T10:38:23;99040.94;;;22.67
76901;BMP280;65859;43.020;25.096;2023-03-21T10:40:50;99042.19;;;22.82
76901;BMP280;65859;43.020;25.096;2023-03-21T10:45:52;99033.59;;;22.87
76901;BMP280;65859;43.020;25.096;2023-03-21T10:48:18;99033.94;;;22.89
76901;BMP280;65859;43.020;25.096;2023-03-21T10:50:48;99026.31;;;22.41
76901;BMP280;65859;43.020;25.096;2023-03-21T10:56:17;99021.19;;;22.23
76901;BMP280;65859;43.020;25.096;2023-03-21T10:58:46;99007.19;;;22.05
76901;BMP280;65859;43.020;25.096;2023-03-21T11:01:29;99016.50;;;21.73
76901;BMP280;65859;43.020;25.096;2023-03-21T11:04:00;99011.28;;;21.59
76901;BMP280;65859;43.020;25.096;2023-03-21T11:06:31;99004.38;;;21.27
76901;BMP280;65859;43.020;25.096;2023-03-21T11:09:08;99003.38;;;20.77
76901;BMP280;65859;43.020;25.096;2023-03-21T11:11:51;98999.00;;;20.45
76901;BMP280;65859;43.020;25.096;2023-03-21T11:14:39;98990.69;;;20.70
76901;BMP280;65859;43.020;25.096;2023-03-21T11:17:22;98986.56;;;20.58
76901;BMP280;65859;43.020;25.096;2023-03-21T11:20:04;98978.78;;;20.67
76901;BMP280;65859;43.020;25.096;2023-03-21T11:22:39;98980.72;;;20.19
76901;BMP280;65859;43.020;25.096;2023-03-21T11:25:14;98979.31;;;20.03
76901;BMP280;65859;43.020;25.096;2023-03-21T11:27:52;98983.78;;;20.24
76901;BMP280;65859;43.020;25.096;2023-03-21T11:30:23;98983.47;;;20.11
76901;BMP280;65859;43.020;25.096;2023-03-21T11:33:02;98981.13;;;20.21
76901;BMP280;65859;43.020;25.096;2023-03-21T11:35:37;98972.38;;;20.09
76901;BMP280;65859;43.020;25.096;2023-03-21T11:38:05;98970.28;;;20.28
76901;BMP280;65859;43.020;25.096;2023-03-21T11:40:36;98962.00;;;20.04
76901;BMP280;65859;43.020;25.096;2023-03-21T11:48:28;98951.38;;;19.76
76901;BMP280;65859;43.020;25.096;2023-03-21T11:51:05;98946.88;;;19.59
76901;BMP280;65859;43.020;25.096;2023-03-21T11:53:42;98947.22;;;19.68
76901;BMP280;65859;43.020;25.096;2023-03-21T11:59:08;98945.31;;;19.65
76901;BMP280;65859;43.020;25.096;2023-03-21T12:04:46;98936.81;;;19.73
76901;BMP280;65859;43.020;25.096;2023-03-21T12:21:33;98935.13;;;19.21
76901;BMP280;65859;43.020;25.096;2023-03-21T12:37:52;98916.44;;;18.88
76901;BMP280;65859;43.020;25.096;2023-03-21T12:40:38;98924.41;;;18.99
76901;BMP280;65859;43.020;25.096;2023-03-21T12:43:21;98918.28;;;19.06
76901;BMP280;65859;43.020;25.096;2023-03-21T12:45:53;98916.03;;;18.86
76901;BMP280;65859;43.020;25.096;2023-03-21T12:51:15;98911.41;;;18.91
76901;BMP280;65859;43.020;25.096;2023-03-21T12:56:30;98924.50;;;18.81
76901;BMP280;65859;43.020;25.096;2023-03-21T13:01:42;98916.72;;;19.12
76901;BMP280;65859;43.020;25.096;2023-03-21T13:07:04;98909.19;;;18.71
76901;BMP280;65859;43.020;25.096;2023-03-21T13:09:38;98913.34;;;18.94
76901;BMP280;65859;43.020;25.096;2023-03-21T13:18:11;98903.78;;;18.71
76901;BMP280;65859;43.020;25.096;2023-03-21T13:21:03;98900.69;;;18.73
76901;BMP280;65859;43.020;25.096;2023-03-21T13:23:36;98896.91;;;18.56
76901;BMP280;65859;43.020;25.096;2023-03-21T13:26:06;98893.06;;;18.57
76901;BMP280;65859;43.020;25.096;2023-03-21T13:28:34;98894.97;;;18.53
76901;BMP280;65859;43.020;25.096;2023-03-21T13:31:23;98893.84;;;18.47
76901;BMP280;65859;43.020;25.096;2023-03-21T13:33:55;98888.09;;;18.52
76901;BMP280;65859;43.020;25.096;2023-03-21T13:36:29;98890.72;;;18.66
76901;BMP280;65859;43.020;25.096;2023-03-21T13:39:02;98884.63;;;18.48
76901;BMP280;65859;43.020;25.096;2023-03-21T13:41:36;98882.72;;;18.31
76901;BMP280;65859;43.020;25.096;2023-03-21T13:51:42;98884.63;;;18.48
76901;BMP280;65859;43.020;25.096;2023-03-21T13:59:39;98877.72;;;18.40
76901;BMP280;65859;43.020;25.096;2023-03-21T14:04:43;98873.91;;;18.41
76901;BMP280;65859;43.020;25.096;2023-03-21T14:10:00;98882.31;;;18.36
76901;BMP280;65859;43.020;25.096;2023-03-21T14:12:37;98883.09;;;18.36
76901;BMP280;65859;43.020;25.096;2023-03-21T14:15:12;98874.69;;;18.23
76901;BMP280;65859;43.020;25.096;2023-03-21T14:17:59;98875.78;;;18.29
76901;BMP280;65859;43.020;25.096;2023-03-21T14:20:32;98877.72;;;18.22
76901;BMP280;65859;43.020;25.096;2023-03-21T14:23:04;98875.84;;;18.19
76901;BMP280;65859;43.020;25.096;2023-03-21T14:25:38;98879.25;;;18.05
76901;BMP280;65859;43.020;25.096;2023-03-21T14:28:18;98881.97;;;18.09
76901;BMP280;65859;43.020;25.096;2023-03-21T14:30:50;98877.34;;;18.16
76901;BMP280;65859;43.020;25.096;2023-03-21T14:33:28;98880.81;;;18.13
76901;BMP280;65859;43.020;25.096;2023-03-21T14:35:58;98885.81;;;18.08
76901;BMP280;65859;43.020;25.096;2023-03-21T14:38:31;98875.44;;;17.95
76901;BMP280;65859;43.020;25.096;2023-03-21T14:40:58;98871.22;;;18.05
76901;BMP280;65859;43.020;25.096;2023-03-21T14:43:25;98869.69;;;18.01
76901;BMP280;65859;43.020;25.096;2023-03-21T14:45:56;98866.22;;;18.07
76901;BMP280;65859;43.020;25.096;2023-03-21T14:48:34;98859.72;;;18.01
76901;BMP280;65859;43.020;25.096;2023-03-21T14:51:04;98866.22;;;17.93
76901;BMP280;65859;43.020;25.096;2023-03-21T14:53:34;98873.91;;;17.98
76901;BMP280;65859;43.020;25.096;2023-03-21T14:56:16;98871.59;;;17.86
76901;BMP280;65859;43.020;25.096;2023-03-21T14:58:45;98871.63;;;17.89
76901;BMP280;65859;43.020;25.096;2023-03-21T15:01:30;98865.09;;;17.90
76901;BMP280;65859;43.020;25.096;2023-03-21T15:04:04;98867.75;;;17.87
76901;BMP280;65859;43.020;25.096;2023-03-21T15:06:31;98867.00;;;17.83
76901;BMP280;65859;43.020;25.096;2023-03-21T15:09:01;98871.19;;;17.77
76901;BMP280;65859;43.020;25.096;2023-03-21T15:11:30;98868.13;;;17.85
76901;BMP280;65859;43.020;25.096;2023-03-21T15:14:00;98878.84;;;17.82
76901;BMP280;65859;43.020;25.096;2023-03-21T15:16:28;98865.44;;;17.82
76901;BMP280;65859;43.020;25.096;2023-03-21T15:18:54;98874.63;;;17.81
76901;BMP280;65859;43.020;25.096;2023-03-21T15:21:37;98868.13;;;17.82
76901;BMP280;65859;43.020;25.096;2023-03-21T15:26:43;98872.72;;;17.71
76901;BMP280;65859;43.020;25.096;2023-03-21T15:29:10;98872.34;;;17.68
76901;BMP280;65859;43.020;25.096;2023-03-21T15:31:40;98863.50;;;17.72
76901;BMP280;65859;43.020;25.096;2023-03-21T15:34:12;98871.19;;;17.66
76901;BMP280;65859;43.020;25.096;2023-03-21T15:36:47;98870.38;;;17.55
76901;BMP280;65859;43.020;25.096;2023-03-21T15:39:16;98870.78;;;17.53
76901;BMP280;65859;43.020;25.096;2023-03-21T15:41:57;98877.25;;;17.49
76901;BMP280;65859;43.020;25.096;2023-03-21T15:44:25;98871.50;;;17.47
76901;BMP280;65859;43.020;25.096;2023-03-21T15:46:53;98879.16;;;17.41
76901;BMP280;65859;43.020;25.096;2023-03-21T15:49:25;98876.09;;;17.39
76901;BMP280;65859;43.020;25.096;2023-03-21T15:52:23;98875.31;;;17.38
76901;BMP280;65859;43.020;25.096;2023-03-21T15:54:50;98883.72;;;17.37
76901;BMP280;65859;43.020;25.096;2023-03-21T15:57:24;98884.50;;;17.34
76901;BMP280;65859;43.020;25.096;2023-03-21T16:02:31;98879.88;;;17.27
76901;BMP280;65859;43.020;25.096;2023-03-21T16:05:00;98886.34;;;17.23
76901;BMP280;65859;43.020;25.096;2023-03-21T16:07:27;98882.56;;;17.20
76901;BMP280;65859;43.020;25.096;2023-03-21T16:10:02;98876.41;;;17.20
76901;BMP280;65859;43.020;25.096;2023-03-21T16:12:29;98879.44;;;17.11
76901;BMP280;65859;43.020;25.096;2023-03-21T16:14:56;98877.88;;;17.06
76901;BMP280;65859;43.020;25.096;2023-03-21T16:17:29;98871.41;;;17.11
76901;BMP280;65859;43.020;25.096;2023-03-21T16:19:58;98876.38;;;17.09
76901;BMP280;65859;43.020;25.096;2023-03-21T16:22:27;98871.28;;;16.93
76901;BMP280;65859;43.020;25.096;2023-03-21T16:24:55;98875.91;;;16.96
76901;BMP280;65859;43.020;25.096;2023-03-21T16:27:22;98873.59;;;16.91
76901;BMP280;65859;43.020;25.096;2023-03-21T16:29:48;98867.44;;;16.91